Time;durP1;ratioP1;P1;durP2;ratioP2;P2;SDS_P1;SDS_P2;PMS_P1;PMS_P2;Temp;Humidity;BMP_temperature;BMP_pressure;BME280_temperature;BME280_humidity;BME280_pressure;Samples;Min_cycle;Max_cycle;Signal;HPM_P1;HPM_P2
2023/06/12 06:49:23;;;;;;;7.63;6.05;;;;;;;;;;10415032;28;20041;-85
2023/06/12 06:54:44;;;;;;;7.70;5.85;;;;;;;;;;10577323;28;20030;-85
2023/06/12 06:59:48;;;;;;;7.05;5.45;;;;;;;;;;10559688;28;20032;-85
2023/06/12 07:04:50;;;;;;;7.35;5.25;;;;;;;;;;10559634;28;20113;-84
2023/06/12 07:09:53;;;;;;;9.85;6.05;;;;;;;;;;10562332;28;20020;-83
2023/06/12 07:14:54;;;;;;;13.98;5.93;;;;;;;;;;10560750;28;20052;-82
2023/06/12 07:19:55;;;;;;;6.78;5.25;;;;;;;;;;10550690;28;20027;-83
2023/06/12 07:30:38;;;;;;;8.52;5.90;;;;;;;;;;10604355;28;20060;-84
2023/06/12 07:35:39;;;;;;;7.35;5.65;;;;;;;;;;10583906;28;20127;-84
2023/06/12 07:40:40;;;;;;;10.93;6.45;;;;;;;;;;10584265;28;20128;-83
2023/06/12 07:45:41;;;;;;;7.57;5.78;;;;;;;;;;10578593;28;20020;-82
2023/06/12 07:50:42;;;;;;;7.72;5.97;;;;;;;;;;10602488;28;20047;-82
2023/06/12 07:55:44;;;;;;;8.05;6.35;;;;;;;;;;10597903;28;20503;-81
2023/06/12 08:00:45;;;;;;;7.63;6.80;;;;;;;;;;10585643;28;20028;-82
2023/06/12 08:05:46;;;;;;;7.32;6.03;;;;;;;;;;10585693;28;20023;-81
2023/06/12 08:10:47;;;;;;;6.90;5.60;;;;;;;;;;10595015;28;20046;-81
2023/06/12 08:15:48;;;;;;;7.22;5.47;;;;;;;;;;10594340;28;20181;-81
2023/06/12 08:20:50;;;;;;;8.27;5.90;;;;;;;;;;10589054;28;20480;-82
2023/06/12 08:25:51;;;;;;;6.60;5.90;;;;;;;;;;10572758;28;20031;-80
2023/06/12 08:30:57;;;;;;;8.48;5.95;;;;;;;;;;10583772;28;20024;-83
2023/06/12 08:35:59;;;;;;;6.22;5.55;;;;;;;;;;10589280;28;20034;-83
2023/06/12 08:41:02;;;;;;;6.35;5.75;;;;;;;;;;10600812;28;20404;-83
2023/06/12 08:46:04;;;;;;;6.72;6.00;;;;;;;;;;10577687;28;20054;-83
2023/06/12 08:51:05;;;;;;;8.05;5.72;;;;;;;;;;10596156;28;20481;-83
2023/06/12 08:56:08;;;;;;;6.78;5.90;;;;;;;;;;10576112;28;20029;-82
2023/06/12 09:01:09;;;;;;;7.57;6.80;;;;;;;;;;10578296;28;20031;-83
2023/06/12 09:06:11;;;;;;;6.40;5.80;;;;;;;;;;10578670;28;20032;-84
2023/06/12 09:11:18;;;;;;;5.93;5.43;;;;;;;;;;10578005;28;20035;-83
2023/06/12 09:16:20;;;;;;;6.53;5.93;;;;;;;;;;10576952;28;20068;-83
2023/06/12 09:21:22;;;;;;;10.00;5.97;;;;;;;;;;10594201;28;20019;-83
2023/06/12 09:26:23;;;;;;;8.63;6.13;;;;;;;;;;10578590;28;20027;-82
2023/06/12 09:31:24;;;;;;;6.72;6.00;;;;;;;;;;10576495;28;20094;-84
2023/06/12 09:36:30;;;;;;;9.85;6.55;;;;;;;;;;10575249;28;20063;-83
2023/06/12 09:41:34;;;;;;;6.70;5.65;;;;;;;;;;10575798;28;20023;-82
2023/06/12 09:46:37;;;;;;;7.10;6.40;;;;;;;;;;10576112;28;20035;-83
2023/06/12 09:51:39;;;;;;;6.25;5.65;;;;;;;;;;10579964;28;20032;-84
2023/06/12 09:56:40;;;;;;;8.48;6.68;;;;;;;;;;10576638;28;20065;-83
2023/06/12 10:01:42;;;;;;;6.40;5.80;;;;;;;;;;10577694;28;20065;-83
2023/06/12 10:06:43;;;;;;;6.82;6.10;;;;;;;;;;10579259;28;20035;-83
2023/06/12 10:11:46;;;;;;;7.30;6.57;;;;;;;;;;10602636;28;20039;-84
2023/06/12 10:16:47;;;;;;;9.07;6.60;;;;;;;;;;10579730;28;20150;-84
2023/06/12 10:21:59;;;;;;;6.40;5.80;;;;;;;;;;10579703;28;20024;-84
2023/06/12 10:27:03;;;;;;;27.02;24.15;;;;;;;;;;10579506;28;20061;-84
2023/06/12 10:32:05;;;;;;;11.98;6.38;;;;;;;;;;10577361;28;20027;-84
2023/06/12 10:37:25;;;;;;;6.90;6.20;;;;;;;;;;10581721;28;20031;-83
2023/06/12 10:42:38;;;;;;;7.90;6.82;;;;;;;;;;10584975;28;20085;-82
2023/06/12 10:47:39;;;;;;;8.35;5.93;;;;;;;;;;10585578;28;20119;-83
2023/06/12 10:52:53;;;;;;;7.95;6.75;;;;;;;;;;10584404;28;20142;-83
2023/06/12 10:57:56;;;;;;;8.70;6.43;;;;;;;;;;10607252;28;20042;-83
2023/06/12 11:03:01;;;;;;;8.40;6.18;;;;;;;;;;10612383;28;20088;-83
2023/06/12 11:08:03;;;;;;;9.73;7.72;;;;;;;;;;10583454;28;20091;-84
2023/06/12 11:13:04;;;;;;;7.32;6.63;;;;;;;;;;10584252;28;20043;-84
2023/06/12 11:18:10;;;;;;;7.00;6.40;;;;;;;;;;10602364;28;20027;-85
2023/06/12 11:23:11;;;;;;;7.38;6.55;;;;;;;;;;10600810;28;20020;-85
2023/06/12 11:28:12;;;;;;;7.00;6.40;;;;;;;;;;10583721;28;20051;-85
2023/06/12 11:33:13;;;;;;;7.05;5.97;;;;;;;;;;10582177;28;20095;-84
2023/06/12 11:38:16;;;;;;;7.75;7.00;;;;;;;;;;10583305;28;20024;-83
2023/06/12 11:43:18;;;;;;;8.70;7.18;;;;;;;;;;10584474;28;20020;-84
2023/06/12 11:48:19;;;;;;;6.75;6.15;;;;;;;;;;10606163;28;20099;-82
2023/06/12 11:53:20;;;;;;;6.85;6.25;;;;;;;;;;10601487;28;20039;-84
2023/06/12 11:58:36;;;;;;;6.32;5.68;;;;;;;;;;10600777;28;20129;-84
2023/06/12 12:03:37;;;;;;;7.93;6.60;;;;;;;;;;10577601;28;20389;-81
2023/06/12 12:08:38;;;;;;;9.00;6.65;;;;;;;;;;10576016;28;20027;-82
2023/06/12 12:13:52;;;;;;;8.20;7.20;;;;;;;;;;10575688;28;20560;-81
2023/06/12 12:18:54;;;;;;;10.10;9.20;;;;;;;;;;10592381;28;20019;-81
2023/06/12 12:23:56;;;;;;;9.13;8.35;;;;;;;;;;10594189;28;20023;-80
2023/06/12 12:28:57;;;;;;;9.02;7.00;;;;;;;;;;10578191;28;20160;-80
2023/06/12 12:33:58;;;;;;;8.05;7.25;;;;;;;;;;10574376;28;20123;-80
2023/06/12 12:38:59;;;;;;;7.70;6.90;;;;;;;;;;10572031;28;20055;-80
2023/06/12 12:44:00;;;;;;;12.35;7.72;;;;;;;;;;10570223;28;20481;-80
2023/06/12 12:49:02;;;;;;;7.90;7.10;;;;;;;;;;10577235;28;20027;-82
2023/06/12 12:54:03;;;;;;;8.00;7.20;;;;;;;;;;10570445;28;20027;-82
2023/06/12 12:59:06;;;;;;;13.32;7.60;;;;;;;;;;10570831;28;20111;-84
2023/06/12 13:04:08;;;;;;;10.25;8.68;;;;;;;;;;10574695;28;20091;-83
2023/06/12 13:09:09;;;;;;;8.00;7.22;;;;;;;;;;10577777;28;20042;-80
2023/06/12 13:14:10;;;;;;;7.93;7.13;;;;;;;;;;10572518;28;20019;-80
2023/06/12 13:19:11;;;;;;;11.45;7.28;;;;;;;;;;10570437;28;20065;-80
2023/06/12 13:24:12;;;;;;;8.25;7.40;;;;;;;;;;10590517;28;20031;-80
2023/06/12 13:29:13;;;;;;;8.10;7.40;;;;;;;;;;10567806;28;20114;-80
2023/06/12 13:34:14;;;;;;;9.75;8.88;;;;;;;;;;10569723;28;20034;-79
2023/06/12 13:39:16;;;;;;;13.95;11.52;;;;;;;;;;10568719;28;20023;-80
2023/06/12 13:44:17;;;;;;;7.70;6.90;;;;;;;;;;10567111;28;20081;-81
2023/06/12 13:49:18;;;;;;;7.43;6.70;;;;;;;;;;10566984;28;20027;-79
2023/06/12 13:54:19;;;;;;;23.20;20.40;;;;;;;;;;10569063;28;20024;-80
2023/06/12 13:59:20;;;;;;;8.35;7.55;;;;;;;;;;10587063;28;20032;-79
2023/06/12 14:04:21;;;;;;;7.80;7.00;;;;;;;;;;10608994;28;20035;-80
2023/06/12 14:09:22;;;;;;;7.97;7.18;;;;;;;;;;10594210;28;20023;-79
2023/06/12 14:14:23;;;;;;;9.98;7.07;;;;;;;;;;10593899;28;20107;-80
2023/06/12 14:19:24;;;;;;;16.40;14.70;;;;;;;;;;10597957;28;20039;-81
2023/06/12 14:24:25;;;;;;;8.60;6.82;;;;;;;;;;10576189;28;20115;-80
2023/06/12 14:29:26;;;;;;;11.65;7.45;;;;;;;;;;10574580;28;20126;-80
2023/06/12 14:34:27;;;;;;;11.48;7.28;;;;;;;;;;10577256;28;20034;-84
2023/06/12 14:39:28;;;;;;;9.00;8.10;;;;;;;;;;10575733;28;20058;-81
2023/06/12 14:44:29;;;;;;;8.73;7.53;;;;;;;;;;10595506;28;20110;-80
2023/06/12 14:49:30;;;;;;;9.38;6.60;;;;;;;;;;10577522;28;20085;-80
2023/06/12 14:54:31;;;;;;;7.00;6.30;;;;;;;;;;10582306;28;20382;-79
2023/06/12 14:59:32;;;;;;;9.25;6.50;;;;;;;;;;10583809;28;20023;-80
2023/06/12 15:04:33;;;;;;;7.47;6.65;;;;;;;;;;10574897;28;20023;-80
2023/06/12 15:09:34;;;;;;;7.53;6.40;;;;;;;;;;10594768;28;20201;-81
2023/06/12 15:14:35;;;;;;;8.25;6.43;;;;;;;;;;10576606;28;20091;-82
2023/06/12 15:19:36;;;;;;;7.20;6.50;;;;;;;;;;10583332;28;20123;-81
2023/06/12 15:24:37;;;;;;;8.38;7.53;;;;;;;;;;10583058;28;20016;-84
2023/06/12 15:29:39;;;;;;;8.02;6.60;;;;;;;;;;10576847;28;20036;-82
2023/06/12 15:34:43;;;;;;;9.13;7.07;;;;;;;;;;10577600;28;20063;-83
2023/06/12 15:39:46;;;;;;;7.90;6.82;;;;;;;;;;10581758;28;20039;-83
2023/06/12 15:44:47;;;;;;;17.52;15.40;;;;;;;;;;10575780;28;20022;-81
2023/06/12 15:49:48;;;;;;;8.48;7.38;;;;;;;;;;10597053;28;20046;-82
2023/06/12 15:54:49;;;;;;;9.25;8.27;;;;;;;;;;10579279;28;20123;-82
2023/06/12 15:59:50;;;;;;;7.68;6.63;;;;;;;;;;10578767;28;20058;-82
2023/06/12 16:04:51;;;;;;;6.95;6.25;;;;;;;;;;10579648;28;20137;-82
2023/06/12 16:09:55;;;;;;;16.05;14.38;;;;;;;;;;10579499;28;20047;-82
2023/06/12 16:14:57;;;;;;;7.95;6.20;;;;;;;;;;10578802;28;20489;-83
2023/06/12 16:19:58;;;;;;;6.38;5.78;;;;;;;;;;10579552;28;20023;-84
2023/06/12 16:25:09;;;;;;;7.53;6.03;;;;;;;;;;10583529;28;20028;-87
2023/06/12 16:30:49;;;;;;;7.85;6.20;;;;;;;;;;10588817;28;20458;-88
2023/06/12 16:36:21;;;;;;;6.28;5.65;;;;;;;;;;10540697;28;20036;-88
2023/06/12 16:41:22;;;;;;;7.43;5.57;;;;;;;;;;10587595;28;20020;-87
2023/06/12 16:46:39;;;;;;;8.43;5.90;;;;;;;;;;10569508;28;20031;-87
2023/06/12 16:51:46;;;;;;;5.85;5.30;;;;;;;;;;10586411;28;20028;-87
2023/06/12 16:56:53;;;;;;;7.10;6.33;;;;;;;;;;10571030;28;20036;-87
2023/06/12 17:07:48;;;;;;;6.80;5.33;;;;;;;;;;10616916;28;20012;-86
2023/06/12 17:12:56;;;;;;;7.07;6.38;;;;;;;;;;10593243;28;20028;-86
2023/06/12 17:18:05;;;;;;;6.47;5.88;;;;;;;;;;10568537;28;20425;-86
2023/06/12 17:23:13;;;;;;;8.00;5.35;;;;;;;;;;10557419;28;20023;-86
2023/06/12 17:28:14;;;;;;;5.82;5.22;;;;;;;;;;10574270;28;20032;-86
2023/06/12 17:33:15;;;;;;;6.80;5.22;;;;;;;;;;10566768;28;20031;-87
2023/06/12 17:38:16;;;;;;;6.07;5.47;;;;;;;;;;10566387;28;20023;-87
2023/06/12 17:43:17;;;;;;;6.18;5.57;;;;;;;;;;10567608;28;20476;-86
2023/06/12 17:48:18;;;;;;;6.20;5.25;;;;;;;;;;10571111;28;20067;-86
2023/06/12 17:53:19;;;;;;;6.50;5.05;;;;;;;;;;10566820;28;20031;-87
2023/06/12 17:58:20;;;;;;;5.38;4.88;;;;;;;;;;10566004;28;20110;-87
2023/06/12 18:03:21;;;;;;;5.78;5.03;;;;;;;;;;10567155;28;20095;-86
2023/06/12 18:08:22;;;;;;;6.07;5.43;;;;;;;;;;10566527;28;20027;-86
2023/06/12 18:13:23;;;;;;;6.00;5.40;;;;;;;;;;10566342;28;20092;-86
2023/06/12 18:18:24;;;;;;;5.82;5.07;;;;;;;;;;10566815;28;20028;-86
2023/06/12 18:23:25;;;;;;;7.47;5.30;;;;;;;;;;10587601;28;20095;-86
2023/06/12 18:28:29;;;;;;;6.82;5.22;;;;;;;;;;10568366;28;20507;-86
2023/06/12 18:33:30;;;;;;;7.60;5.03;;;;;;;;;;10568800;28;20393;-86
2023/06/12 18:38:31;;;;;;;7.55;5.15;;;;;;;;;;10570681;28;20035;-86
2023/06/12 18:43:32;;;;;;;6.10;5.13;;;;;;;;;;10574681;28;20036;-86
2023/06/12 18:48:33;;;;;;;5.22;4.68;;;;;;;;;;10566135;28;20032;-86
2023/06/12 18:53:34;;;;;;;7.38;5.40;;;;;;;;;;10567447;28;20028;-86
2023/06/12 18:58:35;;;;;;;5.65;4.70;;;;;;;;;;10573806;28;20091;-86
2023/06/12 19:03:36;;;;;;;5.47;4.40;;;;;;;;;;10575646;28;20015;-86
2023/06/12 19:08:37;;;;;;;7.15;5.82;;;;;;;;;;10575435;28;20073;-86
2023/06/12 19:13:38;;;;;;;5.43;4.88;;;;;;;;;;10595124;28;20476;-86
